sensor_id;sensor_type;location;lat;lon;timestamp;P1;durP1;ratioP1;P2;durP2;ratioP2
17420;SDS011;8828;48.800;9.540;2022-12-17T00:02:30;15.27;;;6.30;;
17420;SDS011;8828;48.800;9.540;2022-12-17T00:05:16;9.03;;;5.33;;
17420;SDS011;8828;48.800;9.540;2022-12-17T00:08:01;12.90;;;5.47;;
17420;SDS011;8828;48.800;9.540;2022-12-17T00:10:47;11.50;;;6.83;;
17420;SDS011;8828;48.800;9.540;2022-12-17T00:13:32;12.77;;;5.50;;
17420;SDS011;8828;48.800;9.540;2022-12-17T00:16:21;15.83;;;5.60;;
17420;SDS011;8828;48.800;9.540;2022-12-17T00:19:07;10.97;;;5.97;;
17420;SDS011;8828;48.800;9.540;2022-12-17T00:21:52;23.17;;;6.20;;
17420;SDS011;8828;48.800;9.540;2022-12-17T00:24:37;9.10;;;5.40;;
17420;SDS011;8828;48.800;9.540;2022-12-17T00:27:23;8.73;;;5.43;;
17420;SDS011;8828;48.800;9.540;2022-12-17T00:30:09;12.67;;;5.80;;
17420;SDS011;8828;48.800;9.540;2022-12-17T00:32:56;11.77;;;5.93;;
17420;SDS011;8828;48.800;9.540;2022-12-17T00:35:41;16.20;;;7.27;;
17420;SDS011;8828;48.800;9.540;2022-12-17T00:38:27;11.47;;;5.50;;
17420;SDS011;8828;48.800;9.540;2022-12-17T00:41:12;11.57;;;5.30;;
17420;SDS011;8828;48.800;9.540;2022-12-17T00:44:00;10.73;;;5.67;;
17420;SDS011;8828;48.800;9.540;2022-12-17T00:46:46;10.50;;;5.37;;
17420;SDS011;8828;48.800;9.540;2022-12-17T00:49:33;10.60;;;5.43;;
17420;SDS011;8828;48.800;9.540;2022-12-17T00:52:21;10.90;;;5.87;;
17420;SDS011;8828;48.800;9.540;2022-12-17T00:55:06;11.73;;;5.57;;
17420;SDS011;8828;48.800;9.540;2022-12-17T00:57:52;11.73;;;6.17;;
17420;SDS011;8828;48.800;9.540;2022-12-17T01:00:38;11.33;;;5.37;;
17420;SDS011;8828;48.800;9.540;2022-12-17T01:03:23;10.30;;;5.50;;
17420;SDS011;8828;48.800;9.540;2022-12-17T01:06:11;10.63;;;5.83;;
17420;SDS011;8828;48.800;9.540;2022-12-17T01:08:56;10.63;;;5.53;;
17420;SDS011;8828;48.800;9.540;2022-12-17T01:11:41;10.73;;;5.10;;
17420;SDS011;8828;48.800;9.540;2022-12-17T01:14:27;12.93;;;6.30;;
17420;SDS011;8828;48.800;9.540;2022-12-17T01:17:12;12.53;;;6.30;;
17420;SDS011;8828;48.800;9.540;2022-12-17T01:19:57;12.07;;;5.80;;
17420;SDS011;8828;48.800;9.540;2022-12-17T01:22:45;10.07;;;6.20;;
17420;SDS011;8828;48.800;9.540;2022-12-17T01:25:30;11.00;;;5.47;;
17420;SDS011;8828;48.800;9.540;2022-12-17T01:28:20;10.43;;;5.30;;
17420;SDS011;8828;48.800;9.540;2022-12-17T01:31:11;12.33;;;5.77;;
17420;SDS011;8828;48.800;9.540;2022-12-17T01:34:00;14.23;;;6.63;;
17420;SDS011;8828;48.800;9.540;2022-12-17T01:36:46;14.33;;;6.13;;
17420;SDS011;8828;48.800;9.540;2022-12-17T01:39:33;11.53;;;6.00;;
17420;SDS011;8828;48.800;9.540;2022-12-17T01:42:18;12.80;;;5.80;;
17420;SDS011;8828;48.800;9.540;2022-12-17T01:45:05;9.83;;;5.43;;
17420;SDS011;8828;48.800;9.540;2022-12-17T01:47:54;13.73;;;5.73;;
17420;SDS011;8828;48.800;9.540;2022-12-17T01:50:44;13.53;;;5.97;;
17420;SDS011;8828;48.800;9.540;2022-12-17T01:53:33;10.53;;;5.57;;
17420;SDS011;8828;48.800;9.540;2022-12-17T01:56:23;11.60;;;5.77;;
17420;SDS011;8828;48.800;9.540;2022-12-17T01:59:09;12.83;;;6.50;;
17420;SDS011;8828;48.800;9.540;2022-12-17T02:01:55;12.53;;;6.00;;
17420;SDS011;8828;48.800;9.540;2022-12-17T02:04:41;13.07;;;6.10;;
17420;SDS011;8828;48.800;9.540;2022-12-17T02:07:31;17.57;;;7.07;;
17420;SDS011;8828;48.800;9.540;2022-12-17T02:10:32;15.73;;;6.03;;
17420;SDS011;8828;48.800;9.540;2022-12-17T02:13:25;12.07;;;6.03;;
17420;SDS011;8828;48.800;9.540;2022-12-17T02:16:15;12.67;;;5.73;;
17420;SDS011;8828;48.800;9.540;2022-12-17T02:19:05;14.57;;;6.83;;
17420;SDS011;8828;48.800;9.540;2022-12-17T02:22:00;15.43;;;6.03;;
17420;SDS011;8828;48.800;9.540;2022-12-17T02:24:54;12.50;;;6.23;;
17420;SDS011;8828;48.800;9.540;2022-12-17T02:27:46;12.87;;;6.23;;
17420;SDS011;8828;48.800;9.540;2022-12-17T02:30:31;16.03;;;7.07;;
17420;SDS011;8828;48.800;9.540;2022-12-17T02:33:18;14.27;;;6.37;;
17420;SDS011;8828;48.800;9.540;2022-12-17T02:36:04;18.03;;;5.97;;
17420;SDS011;8828;48.800;9.540;2022-12-17T02:38:50;13.30;;;6.90;;
17420;SDS011;8828;48.800;9.540;2022-12-17T02:41:45;11.10;;;5.47;;
17420;SDS011;8828;48.800;9.540;2022-12-17T02:44:35;13.37;;;5.83;;
17420;SDS011;8828;48.800;9.540;2022-12-17T02:47:21;9.50;;;5.53;;
17420;SDS011;8828;48.800;9.540;2022-12-17T02:50:09;12.87;;;5.87;;
17420;SDS011;8828;48.800;9.540;2022-12-17T02:52:57;12.20;;;5.40;;
17420;SDS011;8828;48.800;9.540;2022-12-17T02:55:44;15.37;;;6.50;;
17420;SDS011;8828;48.800;9.540;2022-12-17T02:58:29;16.67;;;7.03;;
17420;SDS011;8828;48.800;9.540;2022-12-17T03:01:16;11.57;;;5.97;;
17420;SDS011;8828;48.800;9.540;2022-12-17T03:04:02;12.83;;;6.57;;
17420;SDS011;8828;48.800;9.540;2022-12-17T03:06:48;15.47;;;6.50;;
17420;SDS011;8828;48.800;9.540;2022-12-17T03:09:33;13.63;;;6.50;;
17420;SDS011;8828;48.800;9.540;2022-12-17T03:12:18;11.67;;;6.33;;
17420;SDS011;8828;48.800;9.540;2022-12-17T03:15:04;11.70;;;6.03;;
17420;SDS011;8828;48.800;9.540;2022-12-17T03:17:52;10.80;;;6.43;;
17420;SDS011;8828;48.800;9.540;2022-12-17T03:20:37;12.57;;;6.80;;
17420;SDS011;8828;48.800;9.540;2022-12-17T03:23:23;12.17;;;7.20;;
17420;SDS011;8828;48.800;9.540;2022-12-17T03:26:08;10.27;;;6.27;;
17420;SDS011;8828;48.800;9.540;2022-12-17T03:28:54;12.50;;;6.13;;
17420;SDS011;8828;48.800;9.540;2022-12-17T03:31:39;9.53;;;5.53;;
17420;SDS011;8828;48.800;9.540;2022-12-17T03:34:26;13.40;;;6.87;;
17420;SDS011;8828;48.800;9.540;2022-12-17T03:37:11;18.47;;;6.20;;
17420;SDS011;8828;48.800;9.540;2022-12-17T03:39:57;10.33;;;5.93;;
17420;SDS011;8828;48.800;9.540;2022-12-17T03:42:42;10.57;;;5.57;;
17420;SDS011;8828;48.800;9.540;2022-12-17T03:45:28;12.37;;;6.77;;
17420;SDS011;8828;48.800;9.540;2022-12-17T03:48:13;12.80;;;6.33;;
17420;SDS011;8828;48.800;9.540;2022-12-17T03:51:00;16.37;;;6.40;;
17420;SDS011;8828;48.800;9.540;2022-12-17T03:53:46;13.20;;;7.00;;
17420;SDS011;8828;48.800;9.540;2022-12-17T03:56:31;14.33;;;7.00;;
17420;SDS011;8828;48.800;9.540;2022-12-17T03:59:16;12.43;;;6.30;;
17420;SDS011;8828;48.800;9.540;2022-12-17T04:02:02;12.33;;;6.23;;
17420;SDS011;8828;48.800;9.540;2022-12-17T04:04:48;11.37;;;6.20;;
17420;SDS011;8828;48.800;9.540;2022-12-17T04:07:35;12.00;;;5.53;;
17420;SDS011;8828;48.800;9.540;2022-12-17T04:10:20;11.67;;;6.60;;
17420;SDS011;8828;48.800;9.540;2022-12-17T04:13:06;17.97;;;6.73;;
17420;SDS011;8828;48.800;9.540;2022-12-17T04:15:51;13.20;;;6.70;;
17420;SDS011;8828;48.800;9.540;2022-12-17T04:18:36;14.60;;;6.83;;
17420;SDS011;8828;48.800;9.540;2022-12-17T04:21:22;14.03;;;5.63;;
17420;SDS011;8828;48.800;9.540;2022-12-17T04:24:08;20.23;;;7.77;;
17420;SDS011;8828;48.800;9.540;2022-12-17T04:26:54;13.67;;;6.57;;
17420;SDS011;8828;48.800;9.540;2022-12-17T04:29:39;11.27;;;5.70;;
17420;SDS011;8828;48.800;9.540;2022-12-17T04:32:25;10.93;;;5.47;;
17420;SDS011;8828;48.800;9.540;2022-12-17T04:35:10;11.33;;;6.47;;
17420;SDS011;8828;48.800;9.540;2022-12-17T04:37:56;11.57;;;6.57;;
17420;SDS011;8828;48.800;9.540;2022-12-17T04:40:43;12.90;;;7.30;;
17420;SDS011;8828;48.800;9.540;2022-12-17T04:43:28;13.80;;;7.20;;
17420;SDS011;8828;48.800;9.540;2022-12-17T04:46:13;13.53;;;5.77;;
17420;SDS011;8828;48.800;9.540;2022-12-17T04:48:59;16.47;;;8.47;;
17420;SDS011;8828;48.800;9.540;2022-12-17T04:51:44;17.40;;;6.63;;
17420;SDS011;8828;48.800;9.540;2022-12-17T04:54:30;10.60;;;7.10;;
17420;SDS011;8828;48.800;9.540;2022-12-17T04:57:17;13.10;;;6.40;;
17420;SDS011;8828;48.800;9.540;2022-12-17T05:00:02;17.40;;;7.30;;
17420;SDS011;8828;48.800;9.540;2022-12-17T05:02:48;10.67;;;6.27;;
17420;SDS011;8828;48.800;9.540;2022-12-17T05:05:33;14.83;;;7.20;;
17420;SDS011;8828;48.800;9.540;2022-12-17T05:08:19;19.80;;;7.17;;
17420;SDS011;8828;48.800;9.540;2022-12-17T05:11:06;14.77;;;7.07;;
17420;SDS011;8828;48.800;9.540;2022-12-17T05:13:53;16.33;;;7.70;;
17420;SDS011;8828;48.800;9.540;2022-12-17T05:16:39;20.30;;;7.30;;
17420;SDS011;8828;48.800;9.540;2022-12-17T05:19:24;14.43;;;8.10;;
17420;SDS011;8828;48.800;9.540;2022-12-17T05:22:10;18.00;;;8.00;;
17420;SDS011;8828;48.800;9.540;2022-12-17T05:24:55;17.47;;;7.97;;
17420;SDS011;8828;48.800;9.540;2022-12-17T05:27:41;17.93;;;8.10;;
17420;SDS011;8828;48.800;9.540;2022-12-17T05:30:28;19.00;;;7.87;;
17420;SDS011;8828;48.800;9.540;2022-12-17T05:33:13;15.50;;;6.97;;
17420;SDS011;8828;48.800;9.540;2022-12-17T05:35:59;15.43;;;7.83;;
17420;SDS011;8828;48.800;9.540;2022-12-17T05:38:45;18.17;;;6.93;;
17420;SDS011;8828;48.800;9.540;2022-12-17T05:41:31;19.17;;;6.93;;
17420;SDS011;8828;48.800;9.540;2022-12-17T05:44:17;13.87;;;7.07;;
17420;SDS011;8828;48.800;9.540;2022-12-17T05:47:04;17.07;;;8.33;;
17420;SDS011;8828;48.800;9.540;2022-12-17T05:49:50;15.07;;;8.53;;
17420;SDS011;8828;48.800;9.540;2022-12-17T05:52:35;14.37;;;7.23;;
17420;SDS011;8828;48.800;9.540;2022-12-17T05:55:21;16.47;;;7.80;;
17420;SDS011;8828;48.800;9.540;2022-12-17T05:58:07;14.50;;;7.30;;
17420;SDS011;8828;48.800;9.540;2022-12-17T06:00:54;20.23;;;7.40;;
17420;SDS011;8828;48.800;9.540;2022-12-17T06:03:41;17.20;;;8.37;;
17420;SDS011;8828;48.800;9.540;2022-12-17T06:06:27;17.23;;;8.67;;
17420;SDS011;8828;48.800;9.540;2022-12-17T06:09:12;16.37;;;8.53;;
17420;SDS011;8828;48.800;9.540;2022-12-17T06:11:58;16.57;;;8.00;;
17420;SDS011;8828;48.800;9.540;2022-12-17T06:14:43;20.30;;;9.17;;
17420;SDS011;8828;48.800;9.540;2022-12-17T06:17:29;17.20;;;8.00;;
17420;SDS011;8828;48.800;9.540;2022-12-17T06:20:16;16.53;;;8.40;;
17420;SDS011;8828;48.800;9.540;2022-12-17T06:23:02;20.17;;;7.37;;
17420;SDS011;8828;48.800;9.540;2022-12-17T06:25:51;20.07;;;8.57;;
17420;SDS011;8828;48.800;9.540;2022-12-17T06:28:36;14.23;;;6.43;;
17420;SDS011;8828;48.800;9.540;2022-12-17T06:31:23;14.63;;;7.80;;
17420;SDS011;8828;48.800;9.540;2022-12-17T06:34:09;19.50;;;9.37;;
17420;SDS011;8828;48.800;9.540;2022-12-17T06:36:55;14.30;;;7.27;;
17420;SDS011;8828;48.800;9.540;2022-12-17T06:39:40;18.37;;;8.00;;
17420;SDS011;8828;48.800;9.540;2022-12-17T06:42:26;17.47;;;8.40;;
17420;SDS011;8828;48.800;9.540;2022-12-17T06:45:11;17.43;;;8.03;;
17420;SDS011;8828;48.800;9.540;2022-12-17T06:48:00;16.50;;;8.20;;
17420;SDS011;8828;48.800;9.540;2022-12-17T06:50:45;20.53;;;8.03;;
17420;SDS011;8828;48.800;9.540;2022-12-17T06:53:32;17.17;;;8.50;;
17420;SDS011;8828;48.800;9.540;2022-12-17T06:56:17;20.47;;;8.50;;
17420;SDS011;8828;48.800;9.540;2022-12-17T06:59:03;17.93;;;8.67;;
17420;SDS011;8828;48.800;9.540;2022-12-17T07:01:48;23.60;;;10.60;;
17420;SDS011;8828;48.800;9.540;2022-12-17T07:04:34;18.10;;;8.83;;
17420;SDS011;8828;48.800;9.540;2022-12-17T07:07:19;18.40;;;9.23;;
17420;SDS011;8828;48.800;9.540;2022-12-17T07:10:15;15.50;;;8.30;;
17420;SDS011;8828;48.800;9.540;2022-12-17T07:13:03;20.57;;;8.23;;
17420;SDS011;8828;48.800;9.540;2022-12-17T07:15:49;17.27;;;7.67;;
17420;SDS011;8828;48.800;9.540;2022-12-17T07:18:35;25.13;;;8.77;;
17420;SDS011;8828;48.800;9.540;2022-12-17T07:21:21;13.53;;;7.30;;
17420;SDS011;8828;48.800;9.540;2022-12-17T07:24:06;15.60;;;7.60;;
17420;SDS011;8828;48.800;9.540;2022-12-17T07:26:53;13.97;;;7.57;;
17420;SDS011;8828;48.800;9.540;2022-12-17T07:29:39;17.63;;;7.13;;
17420;SDS011;8828;48.800;9.540;2022-12-17T07:32:24;24.93;;;9.00;;
17420;SDS011;8828;48.800;9.540;2022-12-17T07:35:10;16.23;;;9.13;;
17420;SDS011;8828;48.800;9.540;2022-12-17T07:37:58;26.17;;;9.43;;
17420;SDS011;8828;48.800;9.540;2022-12-17T07:40:43;23.77;;;8.40;;
17420;SDS011;8828;48.800;9.540;2022-12-17T07:43:31;36.83;;;13.73;;
17420;SDS011;8828;48.800;9.540;2022-12-17T07:46:18;37.47;;;13.07;;
17420;SDS011;8828;48.800;9.540;2022-12-17T07:49:04;17.87;;;9.07;;
17420;SDS011;8828;48.800;9.540;2022-12-17T07:51:51;17.63;;;8.33;;
17420;SDS011;8828;48.800;9.540;2022-12-17T07:54:37;18.67;;;7.87;;
17420;SDS011;8828;48.800;9.540;2022-12-17T07:57:22;19.33;;;8.90;;
17420;SDS011;8828;48.800;9.540;2022-12-17T08:00:10;19.70;;;9.20;;
17420;SDS011;8828;48.800;9.540;2022-12-17T08:02:56;18.70;;;8.10;;
17420;SDS011;8828;48.800;9.540;2022-12-17T08:05:42;15.00;;;7.77;;
17420;SDS011;8828;48.800;9.540;2022-12-17T08:08:28;15.63;;;7.30;;
17420;SDS011;8828;48.800;9.540;2022-12-17T08:11:13;15.73;;;7.20;;
17420;SDS011;8828;48.800;9.540;2022-12-17T08:14:04;19.40;;;8.47;;
17420;SDS011;8828;48.800;9.540;2022-12-17T08:16:51;14.10;;;7.33;;
17420;SDS011;8828;48.800;9.540;2022-12-17T08:19:37;14.57;;;7.20;;
17420;SDS011;8828;48.800;9.540;2022-12-17T08:22:22;16.03;;;7.13;;
17420;SDS011;8828;48.800;9.540;2022-12-17T08:25:08;21.30;;;8.87;;
17420;SDS011;8828;48.800;9.540;2022-12-17T08:27:54;17.37;;;8.27;;
17420;SDS011;8828;48.800;9.540;2022-12-17T08:31:00;14.87;;;7.83;;
17420;SDS011;8828;48.800;9.540;2022-12-17T08:33:47;13.97;;;7.23;;
17420;SDS011;8828;48.800;9.540;2022-12-17T08:36:33;19.10;;;7.23;;
17420;SDS011;8828;48.800;9.540;2022-12-17T08:39:19;17.67;;;6.70;;
17420;SDS011;8828;48.800;9.540;2022-12-17T08:42:04;17.77;;;8.33;;
17420;SDS011;8828;48.800;9.540;2022-12-17T08:44:50;18.57;;;7.37;;
17420;SDS011;8828;48.800;9.540;2022-12-17T08:47:34;18.07;;;7.53;;
17420;SDS011;8828;48.800;9.540;2022-12-17T08:50:28;19.13;;;7.83;;
17420;SDS011;8828;48.800;9.540;2022-12-17T08:53:14;24.77;;;10.20;;
17420;SDS011;8828;48.800;9.540;2022-12-17T08:56:00;24.60;;;9.13;;
17420;SDS011;8828;48.800;9.540;2022-12-17T08:58:46;16.83;;;6.60;;
17420;SDS011;8828;48.800;9.540;2022-12-17T09:01:31;21.83;;;10.97;;
17420;SDS011;8828;48.800;9.540;2022-12-17T09:04:25;25.77;;;8.90;;
17420;SDS011;8828;48.800;9.540;2022-12-17T09:07:12;22.33;;;9.40;;
17420;SDS011;8828;48.800;9.540;2022-12-17T09:09:58;23.83;;;10.07;;
17420;SDS011;8828;48.800;9.540;2022-12-17T09:12:43;19.93;;;9.43;;
17420;SDS011;8828;48.800;9.540;2022-12-17T09:15:30;24.83;;;9.87;;
17420;SDS011;8828;48.800;9.540;2022-12-17T09:18:17;20.27;;;9.90;;
17420;SDS011;8828;48.800;9.540;2022-12-17T09:21:02;18.80;;;8.73;;
17420;SDS011;8828;48.800;9.540;2022-12-17T09:23:49;22.47;;;9.10;;
17420;SDS011;8828;48.800;9.540;2022-12-17T09:26:35;18.70;;;7.97;;
17420;SDS011;8828;48.800;9.540;2022-12-17T09:29:20;20.10;;;8.53;;
17420;SDS011;8828;48.800;9.540;2022-12-17T09:32:06;44.97;;;18.13;;
17420;SDS011;8828;48.800;9.540;2022-12-17T09:34:51;36.67;;;15.37;;
17420;SDS011;8828;48.800;9.540;2022-12-17T09:37:37;20.67;;;8.70;;
17420;SDS011;8828;48.800;9.540;2022-12-17T09:40:24;19.67;;;8.40;;
17420;SDS011;8828;48.800;9.540;2022-12-17T09:43:13;18.63;;;8.90;;
17420;SDS011;8828;48.800;9.540;2022-12-17T09:46:08;16.50;;;7.13;;
17420;SDS011;8828;48.800;9.540;2022-12-17T09:49:02;20.60;;;8.77;;
17420;SDS011;8828;48.800;9.540;2022-12-17T09:51:56;20.83;;;8.50;;
17420;SDS011;8828;48.800;9.540;2022-12-17T09:54:42;23.73;;;8.80;;
17420;SDS011;8828;48.800;9.540;2022-12-17T09:57:33;22.90;;;9.67;;
17420;SDS011;8828;48.800;9.540;2022-12-17T10:00:21;19.00;;;8.10;;
17420;SDS011;8828;48.800;9.540;2022-12-17T10:03:09;25.47;;;9.63;;
17420;SDS011;8828;48.800;9.540;2022-12-17T10:05:59;21.70;;;9.53;;
17420;SDS011;8828;48.800;9.540;2022-12-17T10:08:52;16.37;;;8.40;;
17420;SDS011;8828;48.800;9.540;2022-12-17T10:11:41;17.33;;;8.07;;
17420;SDS011;8828;48.800;9.540;2022-12-17T10:14:28;20.87;;;9.83;;
17420;SDS011;8828;48.800;9.540;2022-12-17T10:17:15;24.67;;;9.97;;
17420;SDS011;8828;48.800;9.540;2022-12-17T10:20:13;22.47;;;8.83;;
17420;SDS011;8828;48.800;9.540;2022-12-17T10:23:04;25.60;;;10.20;;
17420;SDS011;8828;48.800;9.540;2022-12-17T10:25:50;25.13;;;10.73;;
17420;SDS011;8828;48.800;9.540;2022-12-17T10:28:37;21.50;;;9.03;;
17420;SDS011;8828;48.800;9.540;2022-12-17T10:31:25;18.90;;;9.43;;
17420;SDS011;8828;48.800;9.540;2022-12-17T10:34:13;15.70;;;7.57;;
17420;SDS011;8828;48.800;9.540;2022-12-17T10:37:01;25.40;;;9.10;;
17420;SDS011;8828;48.800;9.540;2022-12-17T10:39:53;21.50;;;9.40;;
17420;SDS011;8828;48.800;9.540;2022-12-17T10:42:39;19.53;;;9.30;;
17420;SDS011;8828;48.800;9.540;2022-12-17T10:45:26;21.47;;;10.23;;
17420;SDS011;8828;48.800;9.540;2022-12-17T10:48:20;22.33;;;9.70;;
17420;SDS011;8828;48.800;9.540;2022-12-17T10:51:16;19.43;;;9.57;;
17420;SDS011;8828;48.800;9.540;2022-12-17T10:54:05;22.70;;;9.53;;
17420;SDS011;8828;48.800;9.540;2022-12-17T10:56:54;18.80;;;8.77;;
17420;SDS011;8828;48.800;9.540;2022-12-17T10:59:42;25.03;;;10.33;;
17420;SDS011;8828;48.800;9.540;2022-12-17T11:02:25;18.43;;;8.97;;
17420;SDS011;8828;48.800;9.540;2022-12-17T11:05:21;22.13;;;9.70;;
17420;SDS011;8828;48.800;9.540;2022-12-17T11:08:10;22.60;;;9.87;;
17420;SDS011;8828;48.800;9.540;2022-12-17T11:10:58;20.03;;;9.03;;
17420;SDS011;8828;48.800;9.540;2022-12-17T11:13:53;24.17;;;10.57;;
17420;SDS011;8828;48.800;9.540;2022-12-17T11:16:42;29.73;;;10.60;;
17420;SDS011;8828;48.800;9.540;2022-12-17T11:19:34;33.03;;;13.97;;
17420;SDS011;8828;48.800;9.540;2022-12-17T11:22:28;35.87;;;12.93;;
17420;SDS011;8828;48.800;9.540;2022-12-17T11:25:28;27.77;;;11.10;;
17420;SDS011;8828;48.800;9.540;2022-12-17T11:28:21;27.37;;;10.47;;
17420;SDS011;8828;48.800;9.540;2022-12-17T11:31:14;27.23;;;10.97;;
17420;SDS011;8828;48.800;9.540;2022-12-17T11:34:26;23.87;;;11.00;;
17420;SDS011;8828;48.800;9.540;2022-12-17T11:37:19;22.17;;;10.07;;
17420;SDS011;8828;48.800;9.540;2022-12-17T11:43:12;20.97;;;10.27;;
17420;SDS011;8828;48.800;9.540;2022-12-17T11:46:07;28.87;;;10.90;;
17420;SDS011;8828;48.800;9.540;2022-12-17T11:49:02;25.23;;;10.57;;
17420;SDS011;8828;48.800;9.540;2022-12-17T11:51:54;24.63;;;11.37;;
17420;SDS011;8828;48.800;9.540;2022-12-17T11:54:47;28.67;;;11.37;;
17420;SDS011;8828;48.800;9.540;2022-12-17T11:57:43;18.97;;;10.07;;
17420;SDS011;8828;48.800;9.540;2022-12-17T12:00:33;26.87;;;11.17;;
17420;SDS011;8828;48.800;9.540;2022-12-17T12:03:28;25.57;;;10.83;;
17420;SDS011;8828;48.800;9.540;2022-12-17T12:06:22;28.37;;;12.03;;
17420;SDS011;8828;48.800;9.540;2022-12-17T12:09:14;26.87;;;11.43;;
17420;SDS011;8828;48.800;9.540;2022-12-17T12:12:06;22.63;;;11.43;;
17420;SDS011;8828;48.800;9.540;2022-12-17T12:14:59;25.37;;;11.97;;
17420;SDS011;8828;48.800;9.540;2022-12-17T12:17:55;28.87;;;12.33;;
17420;SDS011;8828;48.800;9.540;2022-12-17T12:20:51;29.77;;;12.03;;
17420;SDS011;8828;48.800;9.540;2022-12-17T12:23:50;21.63;;;9.90;;
17420;SDS011;8828;48.800;9.540;2022-12-17T12:26:45;27.63;;;11.57;;
17420;SDS011;8828;48.800;9.540;2022-12-17T12:29:36;33.53;;;12.70;;
17420;SDS011;8828;48.800;9.540;2022-12-17T12:32:31;23.20;;;10.27;;
17420;SDS011;8828;48.800;9.540;2022-12-17T12:35:35;24.77;;;10.97;;
17420;SDS011;8828;48.800;9.540;2022-12-17T12:38:24;27.07;;;11.27;;
17420;SDS011;8828;48.800;9.540;2022-12-17T12:41:15;31.83;;;12.00;;
17420;SDS011;8828;48.800;9.540;2022-12-17T12:44:11;25.50;;;10.80;;
17420;SDS011;8828;48.800;9.540;2022-12-17T12:47:06;32.50;;;12.87;;
17420;SDS011;8828;48.800;9.540;2022-12-17T12:49:57;28.60;;;11.83;;
17420;SDS011;8828;48.800;9.540;2022-12-17T12:52:49;27.90;;;12.03;;
17420;SDS011;8828;48.800;9.540;2022-12-17T12:55:37;30.30;;;13.30;;
17420;SDS011;8828;48.800;9.540;2022-12-17T12:58:24;26.40;;;11.77;;
17420;SDS011;8828;48.800;9.540;2022-12-17T13:01:11;31.97;;;13.17;;
17420;SDS011;8828;48.800;9.540;2022-12-17T13:03:58;31.27;;;13.13;;
17420;SDS011;8828;48.800;9.540;2022-12-17T13:06:55;33.10;;;11.90;;
17420;SDS011;8828;48.800;9.540;2022-12-17T13:09:31;25.83;;;11.43;;
17420;SDS011;8828;48.800;9.540;2022-12-17T13:12:16;25.77;;;12.30;;
17420;SDS011;8828;48.800;9.540;2022-12-17T13:15:12;28.30;;;11.87;;
17420;SDS011;8828;48.800;9.540;2022-12-17T13:17:44;27.97;;;12.97;;
17420;SDS011;8828;48.800;9.540;2022-12-17T13:20:23;29.23;;;13.00;;
17420;SDS011;8828;48.800;9.540;2022-12-17T13:23:11;27.10;;;14.00;;
17420;SDS011;8828;48.800;9.540;2022-12-17T13:25:41;33.20;;;13.70;;
17420;SDS011;8828;48.800;9.540;2022-12-17T13:28:25;32.53;;;13.13;;
17420;SDS011;8828;48.800;9.540;2022-12-17T13:31:02;29.70;;;12.77;;
17420;SDS011;8828;48.800;9.540;2022-12-17T13:33:34;34.60;;;14.63;;
17420;SDS011;8828;48.800;9.540;2022-12-17T13:36:13;24.93;;;12.03;;
17420;SDS011;8828;48.800;9.540;2022-12-17T13:38:49;30.23;;;13.20;;
17420;SDS011;8828;48.800;9.540;2022-12-17T13:41:25;33.67;;;12.20;;
17420;SDS011;8828;48.800;9.540;2022-12-17T13:43:55;27.50;;;13.00;;
17420;SDS011;8828;48.800;9.540;2022-12-17T13:46:26;32.67;;;14.37;;
17420;SDS011;8828;48.800;9.540;2022-12-17T13:48:56;27.63;;;14.07;;
17420;SDS011;8828;48.800;9.540;2022-12-17T13:51:26;31.57;;;14.13;;
17420;SDS011;8828;48.800;9.540;2022-12-17T13:53:58;30.97;;;13.37;;
17420;SDS011;8828;48.800;9.540;2022-12-17T13:56:28;30.33;;;14.23;;
17420;SDS011;8828;48.800;9.540;2022-12-17T13:58:58;28.97;;;13.63;;
17420;SDS011;8828;48.800;9.540;2022-12-17T14:01:42;34.40;;;13.60;;
17420;SDS011;8828;48.800;9.540;2022-12-17T14:04:18;24.57;;;12.30;;
17420;SDS011;8828;48.800;9.540;2022-12-17T14:06:47;32.67;;;14.00;;
17420;SDS011;8828;48.800;9.540;2022-12-17T14:09:19;29.00;;;13.30;;
17420;SDS011;8828;48.800;9.540;2022-12-17T14:11:50;34.57;;;13.33;;
17420;SDS011;8828;48.800;9.540;2022-12-17T14:14:39;27.83;;;12.13;;
17420;SDS011;8828;48.800;9.540;2022-12-17T14:17:14;24.40;;;11.93;;
17420;SDS011;8828;48.800;9.540;2022-12-17T14:19:44;29.27;;;12.83;;
17420;SDS011;8828;48.800;9.540;2022-12-17T14:22:15;32.00;;;13.83;;
17420;SDS011;8828;48.800;9.540;2022-12-17T14:24:51;31.40;;;12.57;;
17420;SDS011;8828;48.800;9.540;2022-12-17T14:27:22;33.37;;;12.87;;
17420;SDS011;8828;48.800;9.540;2022-12-17T14:29:52;30.97;;;12.97;;
17420;SDS011;8828;48.800;9.540;2022-12-17T14:32:23;25.90;;;11.87;;
17420;SDS011;8828;48.800;9.540;2022-12-17T14:34:52;29.83;;;12.03;;
17420;SDS011;8828;48.800;9.540;2022-12-17T14:37:26;33.43;;;13.90;;
17420;SDS011;8828;48.800;9.540;2022-12-17T14:39:57;30.30;;;12.17;;
17420;SDS011;8828;48.800;9.540;2022-12-17T14:42:29;29.10;;;13.33;;
17420;SDS011;8828;48.800;9.540;2022-12-17T14:45:02;40.00;;;14.77;;
17420;SDS011;8828;48.800;9.540;2022-12-17T14:47:33;39.17;;;17.40;;
17420;SDS011;8828;48.800;9.540;2022-12-17T14:50:04;35.67;;;15.07;;
17420;SDS011;8828;48.800;9.540;2022-12-17T14:52:37;44.97;;;18.70;;
17420;SDS011;8828;48.800;9.540;2022-12-17T14:55:28;48.97;;;19.63;;
17420;SDS011;8828;48.800;9.540;2022-12-17T14:58:14;45.53;;;18.27;;
17420;SDS011;8828;48.800;9.540;2022-12-17T15:00:48;46.67;;;18.77;;
17420;SDS011;8828;48.800;9.540;2022-12-17T15:03:20;41.93;;;17.03;;
17420;SDS011;8828;48.800;9.540;2022-12-17T15:05:51;37.80;;;15.30;;
17420;SDS011;8828;48.800;9.540;2022-12-17T15:08:22;38.10;;;14.60;;
17420;SDS011;8828;48.800;9.540;2022-12-17T15:10:52;25.70;;;12.77;;
17420;SDS011;8828;48.800;9.540;2022-12-17T15:13:22;26.73;;;12.77;;
17420;SDS011;8828;48.800;9.540;2022-12-17T15:15:50;27.93;;;12.07;;
17420;SDS011;8828;48.800;9.540;2022-12-17T15:18:18;29.03;;;12.70;;
17420;SDS011;8828;48.800;9.540;2022-12-17T15:20:46;26.57;;;12.10;;
17420;SDS011;8828;48.800;9.540;2022-12-17T15:23:15;24.00;;;10.97;;
17420;SDS011;8828;48.800;9.540;2022-12-17T15:25:44;27.60;;;11.37;;
17420;SDS011;8828;48.800;9.540;2022-12-17T15:28:16;28.67;;;12.17;;
17420;SDS011;8828;48.800;9.540;2022-12-17T15:30:45;28.00;;;13.10;;
17420;SDS011;8828;48.800;9.540;2022-12-17T15:33:14;27.50;;;12.40;;
17420;SDS011;8828;48.800;9.540;2022-12-17T15:35:42;34.17;;;12.30;;
17420;SDS011;8828;48.800;9.540;2022-12-17T15:38:11;24.80;;;12.80;;
17420;SDS011;8828;48.800;9.540;2022-12-17T15:40:39;21.20;;;10.13;;
17420;SDS011;8828;48.800;9.540;2022-12-17T15:43:08;27.30;;;11.47;;
17420;SDS011;8828;48.800;9.540;2022-12-17T15:45:40;31.33;;;11.03;;
17420;SDS011;8828;48.800;9.540;2022-12-17T15:48:09;33.63;;;12.80;;
17420;SDS011;8828;48.800;9.540;2022-12-17T15:50:38;41.87;;;16.50;;
17420;SDS011;8828;48.800;9.540;2022-12-17T15:53:07;36.40;;;16.10;;
17420;SDS011;8828;48.800;9.540;2022-12-17T15:55:35;42.70;;;15.60;;
17420;SDS011;8828;48.800;9.540;2022-12-17T15:58:04;40.13;;;15.07;;
17420;SDS011;8828;48.800;9.540;2022-12-17T16:00:34;41.47;;;15.57;;
17420;SDS011;8828;48.800;9.540;2022-12-17T16:03:03;42.77;;;17.33;;
17420;SDS011;8828;48.800;9.540;2022-12-17T16:05:32;43.27;;;17.13;;
17420;SDS011;8828;48.800;9.540;2022-12-17T16:07:59;36.07;;;14.43;;
17420;SDS011;8828;48.800;9.540;2022-12-17T16:10:28;40.03;;;14.83;;
17420;SDS011;8828;48.800;9.540;2022-12-17T16:12:56;43.93;;;16.13;;
17420;SDS011;8828;48.800;9.540;2022-12-17T16:15:24;33.17;;;15.50;;
17420;SDS011;8828;48.800;9.540;2022-12-17T16:17:52;39.87;;;16.20;;
17420;SDS011;8828;48.800;9.540;2022-12-17T16:20:22;39.93;;;16.93;;
17420;SDS011;8828;48.800;9.540;2022-12-17T16:22:50;37.83;;;16.37;;
17420;SDS011;8828;48.800;9.540;2022-12-17T16:25:18;48.73;;;20.63;;
17420;SDS011;8828;48.800;9.540;2022-12-17T16:27:45;37.67;;;16.43;;
17420;SDS011;8828;48.800;9.540;2022-12-17T16:30:13;44.27;;;16.17;;